Time;durP1;ratioP1;P1;durP2;ratioP2;P2;SDS_P1;SDS_P2;PMS_P1;PMS_P2;Temp;Humidity;BMP_temperature;BMP_pressure;BME280_temperature;BME280_humidity;BME280_pressure;Samples;Min_cycle;Max_cycle;Signal;HPM_P1;HPM_P2
2023/08/19 13:47:46;;;;;;;;;15.38;14.88;;;;;29.57;65.30;99890.09;6213156;20;3559727;-53
2023/08/19 13:50:20;;;;;;;;;16.67;15.33;;;;;29.44;67.96;99889.03;6312540;20;3555450;-53
2023/08/19 13:52:49;;;;;;;;;17.00;15.67;;;;;29.53;67.76;99876.69;6307665;20;3560690;-49
2023/08/19 13:55:19;;;;;;;;;21.00;20.00;;;;;29.95;67.77;99885.59;6307492;20;3586790;-59
2023/08/19 13:57:48;;;;;;;;;15.67;15.67;;;;;30.00;65.24;99882.19;6340078;20;3553403;-59
2023/08/19 14:00:19;;;;;;;;;18.00;17.00;;;;;30.07;67.05;99877.50;6340165;20;3562841;-59
2023/08/19 14:02:47;;;;;;;;;19.33;17.33;;;;;29.73;65.16;99878.63;6342197;20;3563891;-59
2023/08/19 14:05:16;;;;;;;;;16.67;16.33;;;;;29.88;66.04;99878.38;6311359;20;3569057;-59
2023/08/19 14:07:46;;;;;;;;;16.00;16.00;;;;;29.78;66.92;99873.31;6309301;20;3555545;-59
2023/08/19 14:10:18;;;;;;;;;11.00;10.00;;;;;29.70;67.50;99865.19;6308315;20;3505647;-58
2023/08/19 14:12:49;;;;;;;;;18.29;16.86;;;;;29.72;67.81;99863.91;6358401;20;3564888;-59
2023/08/19 14:15:18;;;;;;;;;13.33;13.33;;;;;29.62;67.30;99852.44;6311561;20;3537752;-59
2023/08/19 14:17:48;;;;;;;;;20.00;18.00;;;;;30.05;66.26;99856.63;6334557;20;3573208;-59
2023/08/19 14:20:17;;;;;;;;;17.00;15.67;;;;;30.04;65.43;99849.38;6306910;20;3560684;-58
2023/08/19 14:22:46;;;;;;;;;19.33;16.00;;;;;30.23;65.02;99845.72;6311400;20;3554501;-59
2023/08/19 14:25:15;;;;;;;;;18.00;17.33;;;;;30.35;67.24;99841.19;6311847;20;3562800;-59
2023/08/19 14:27:44;;;;;;;;;19.00;16.67;;;;;30.09;65.57;99844.03;6308133;20;3569041;-59
2023/08/19 14:30:16;;;;;;;;;17.80;16.80;;;;;30.01;65.82;99841.50;6267293;20;5046119;-60
2023/08/19 14:32:44;;;;;;;;;17.00;17.00;;;;;29.91;65.25;99840.06;6205959;20;3564926;-59
2023/08/19 14:35:13;;;;;;;;;18.00;16.33;;;;;30.00;65.02;99837.91;6309329;20;3554437;-59
2023/08/19 14:37:42;;;;;;;;;19.33;16.33;;;;;29.79;65.86;99839.00;6308200;20;3577439;-59
2023/08/19 14:40:11;;;;;;;;;18.67;16.67;;;;;30.11;67.80;99836.38;6310424;20;3553401;-59
2023/08/19 14:42:41;;;;;;;;;18.00;18.00;;;;;30.13;66.46;99831.47;6307850;20;3579452;-59
2023/08/19 14:45:09;;;;;;;;;15.67;14.67;;;;;29.77;67.10;99832.00;6310806;20;3547143;-56
2023/08/19 14:47:38;;;;;;;;;18.33;17.00;;;;;29.83;66.35;99834.72;6305920;20;3571149;-58
2023/08/19 14:50:08;;;;;;;;;17.00;16.00;;;;;29.83;63.69;99837.50;6310391;20;3563860;-57
2023/08/19 14:52:37;;;;;;;;;13.33;13.33;;;;;29.92;64.99;99841.75;6292188;20;3538875;-59
2023/08/19 14:55:09;;;;;;;;;21.14;18.43;;;;;30.03;65.05;99842.16;6357858;20;3562749;-58
2023/08/19 14:57:39;;;;;;;;;21.00;20.00;;;;;30.36;64.16;99844.81;6297773;20;3577341;-56
2023/08/19 15:00:11;;;;;;;;;26.50;24.00;;;;;29.96;64.35;99843.03;6283577;20;3589839;-57
2023/08/19 15:02:49;;;;;;;;;25.57;21.57;;;;;29.95;66.10;99851.53;6334374;20;3581515;-57
2023/08/19 15:05:19;;;;;;;;;17.00;17.00;;;;;29.69;63.50;99852.44;6283336;20;3575263;-56
2023/08/19 15:07:48;;;;;;;;;20.33;20.33;;;;;29.87;63.83;99851.78;6283521;20;3566401;-58
2023/08/19 15:10:17;;;;;;;;;20.33;19.67;;;;;30.03;64.86;99854.06;6284500;20;3582597;-57
2023/08/19 15:12:49;;;;;;;;;19.00;19.00;;;;;29.92;64.34;99846.44;6334855;20;3562765;-58
2023/08/19 15:15:18;;;;;;;;;18.33;18.33;;;;;29.65;64.65;99845.63;6286831;20;3581554;-57
2023/08/19 15:17:47;;;;;;;;;17.33;16.00;;;;;29.73;64.61;99842.66;6285681;20;3555494;-55
2023/08/19 15:20:15;;;;;;;;;20.67;19.33;;;;;29.66;65.58;99847.34;6288620;20;3572309;-55
2023/08/19 15:22:45;;;;;;;;;18.67;18.00;;;;;29.38;65.91;99845.59;6286504;20;3556644;-55
2023/08/19 15:25:13;;;;;;;;;20.00;18.67;;;;;29.46;64.81;99845.38;6286485;20;3564833;-58
2023/08/19 15:27:44;;;;;;;;;19.00;17.67;;;;;29.56;64.45;99835.81;6284386;20;3571091;-57
2023/08/19 15:30:14;;;;;;;;;18.67;18.00;;;;;29.60;64.57;99831.56;6284009;20;3555492;-59
2023/08/19 15:32:49;;;;;;;;;17.40;17.40;;;;;29.78;64.14;99842.84;6333787;20;2703457;-60
2023/08/19 15:35:18;;;;;;;;;20.00;18.33;;;;;29.53;64.79;99842.63;6285614;20;3574281;-60
2023/08/19 15:37:50;;;;;;;;;19.00;17.33;;;;;29.80;65.14;99840.69;6281619;20;2830579;-60
2023/08/19 15:40:20;;;;;;;;;17.67;17.67;;;;;29.73;65.86;99843.50;6316747;20;3566956;-60
2023/08/19 15:42:49;;;;;;;;;16.33;16.33;;;;;29.61;67.33;99836.03;6283541;20;3569024;-59
2023/08/19 15:45:17;;;;;;;;;20.33;20.00;;;;;29.45;65.91;99840.94;6288738;20;3567033;-59
2023/08/19 15:47:46;;;;;;;;;18.67;18.00;;;;;29.59;65.82;99843.69;6284841;20;3554588;-59
2023/08/19 15:50:16;;;;;;;;;18.67;18.00;;;;;29.72;66.93;99841.78;6284640;20;3581599;-60
2023/08/19 15:52:47;;;;;;;;;21.33;18.67;;;;;29.80;67.57;99837.94;6314297;20;3554508;-59
2023/08/19 15:55:17;;;;;;;;;19.00;19.00;;;;;29.49;70.56;99847.75;6311460;20;3573191;-59
2023/08/19 15:57:47;;;;;;;;;18.00;16.67;;;;;29.39;70.28;99847.34;6313586;20;3561755;-59
2023/08/19 16:00:15;;;;;;;;;21.33;19.33;;;;;29.33;70.29;99837.09;6315128;20;3568663;-60
2023/08/19 16:02:44;;;;;;;;;16.67;16.33;;;;;29.24;70.49;99846.69;6284572;20;3557683;-60
2023/08/19 16:05:13;;;;;;;;;16.33;16.33;;;;;29.32;71.34;99846.47;6282794;20;3551323;-61
2023/08/19 16:07:42;;;;;;;;;19.67;19.67;;;;;29.23;70.02;99847.75;6285755;20;3575268;-60
2023/08/19 16:10:11;;;;;;;;;18.00;18.00;;;;;29.16;71.03;99847.75;6281255;20;3570192;-60
2023/08/19 16:12:41;;;;;;;;;16.67;16.67;;;;;29.12;71.78;99851.13;6285378;20;3567014;-60
2023/08/19 16:15:10;;;;;;;;;16.67;16.67;;;;;29.06;71.10;99842.63;6282770;20;3560722;-61
2023/08/19 16:17:39;;;;;;;;;18.33;17.00;;;;;28.94;70.83;99844.28;6286677;20;3566966;-60
2023/08/19 16:20:09;;;;;;;;;19.67;19.67;;;;;28.78;71.98;99847.44;6281129;20;3568016;-60
2023/08/19 16:22:38;;;;;;;;;22.00;20.00;;;;;28.86;71.01;99858.31;6284258;20;3572183;-60
2023/08/19 16:25:07;;;;;;;;;15.33;15.33;;;;;28.79;71.86;99863.81;6279352;20;3548244;-60
2023/08/19 16:27:37;;;;;;;;;23.00;20.00;;;;;28.76;73.88;99855.09;6278375;20;3574289;-61
2023/08/19 16:30:07;;;;;;;;;23.00;20.67;;;;;28.65;74.49;99853.81;6309455;20;3573220;-60
2023/08/19 16:32:39;;;;;;;;;19.29;19.14;;;;;28.45;76.45;99849.03;6328237;20;3583652;-59
2023/08/19 16:35:08;;;;;;;;;21.00;21.00;;;;;28.72;74.72;99856.56;6279841;20;3568034;-59
2023/08/19 16:37:37;;;;;;;;;19.67;19.67;;;;;28.58;74.83;99853.75;6280684;20;3581526;-59
2023/08/19 16:40:08;;;;;;;;;18.00;18.00;;;;;28.36;74.73;99852.19;6277440;20;3581762;-60
2023/08/19 16:42:37;;;;;;;;;23.25;23.25;;;;;28.34;75.18;99854.28;6314523;20;3600299;-59
2023/08/19 16:45:09;;;;;;;;;23.57;23.00;;;;;28.27;73.81;99851.50;6331713;20;3599244;-60
2023/08/19 16:47:40;;;;;;;;;21.00;19.67;;;;;28.06;76.67;99852.44;6274988;20;3581522;-60
2023/08/19 16:50:12;;;;;;;;;22.00;22.00;;;;;27.73;81.47;99847.56;6313189;20;3583615;-60
2023/08/19 16:52:41;;;;;;;;;26.25;23.75;;;;;27.80;79.89;99842.06;6280797;20;3599183;-60
2023/08/19 16:55:11;;;;;;;;;23.33;23.33;;;;;27.75;79.32;99845.47;6305456;20;3599244;-60
2023/08/19 16:57:42;;;;;;;;;25.57;24.57;;;;;27.96;77.20;99846.44;6329960;20;3589934;-60
2023/08/19 17:00:13;;;;;;;;;25.75;23.50;;;;;28.01;77.26;99857.72;6279352;20;3595240;-60
2023/08/19 17:02:44;;;;;;;;;25.86;24.14;;;;;27.62;78.39;99850.88;6315892;20;3594021;-60
2023/08/19 17:05:14;;;;;;;;;28.33;23.33;;;;;27.27;84.55;99856.31;6279276;20;3600344;-61
2023/08/19 17:07:44;;;;;;;;;25.00;22.00;;;;;27.14;87.27;99850.66;6277958;20;3596082;-58
2023/08/19 17:10:15;;;;;;;;;23.29;22.43;;;;;26.98;85.40;99853.69;6328348;20;3586809;-60
2023/08/19 17:12:46;;;;;;;;;26.25;23.25;;;;;26.89;85.75;99853.81;6278719;20;3606472;-60
2023/08/19 17:15:17;;;;;;;;;29.29;28.71;;;;;26.87;90.28;99853.16;6329098;20;3585915;-60
2023/08/19 17:17:47;;;;;;;;;26.25;26.25;;;;;26.82;90.93;99844.63;6277786;20;3585901;-59
2023/08/19 17:20:18;;;;;;;;;29.00;27.86;;;;;26.89;88.03;99850.22;6274681;20;3607766;-59
2023/08/19 17:22:51;;;;;;;;;25.00;25.00;;;;;26.81;87.02;99858.63;6296719;20;3602354;-56
2023/08/19 17:25:23;;;;;;;;;30.00;24.29;;;;;26.58;88.03;99856.88;6328824;20;3599221;-59
2023/08/19 17:27:52;;;;;;;;;23.67;22.67;;;;;26.43;92.09;99862.38;6279847;20;3589846;-52
2023/08/19 17:30:21;;;;;;;;;26.75;24.00;;;;;26.33;94.29;99850.84;6283116;20;3602471;-60
2023/08/19 17:32:51;;;;;;;;;22.00;20.67;;;;;26.18;95.89;99852.75;6308848;20;3587768;-61
2023/08/19 17:35:22;;;;;;;;;26.50;24.25;;;;;26.42;92.50;99846.06;6281853;20;3596289;-55
2023/08/19 17:37:54;;;;;;;;;29.43;26.43;;;;;26.28;93.14;99848.66;6328564;20;3580598;-53
2023/08/19 17:40:25;;;;;;;;;28.43;27.43;;;;;26.13;93.86;99849.72;6329222;20;3588905;-52
2023/08/19 17:42:55;;;;;;;;;27.67;26.00;;;;;25.81;96.19;99851.78;6278604;20;3583611;-53
2023/08/19 17:45:25;;;;;;;;;30.67;29.67;;;;;25.86;96.43;99854.84;6309045;20;3583624;-51
2023/08/19 17:47:54;;;;;;;;;43.00;36.00;;;;;25.76;99.28;99851.50;6311218;20;3601350;-51
2023/08/19 17:50:24;;;;;;;;;39.00;33.67;;;;;25.60;100.00;99849.78;6309354;20;3575399;-55
2023/08/19 17:52:54;;;;;;;;;34.75;31.75;;;;;25.60;100.00;99856.13;6311766;20;3604481;-54
2023/08/19 17:55:24;;;;;;;;;29.25;29.00;;;;;25.57;100.00;99855.66;6310591;20;3581593;-53
2023/08/19 17:57:54;;;;;;;;;30.00;29.00;;;;;25.16;100.00;99859.63;6308376;20;3584619;-52
2023/08/19 18:00:23;;;;;;;;;28.67;28.67;;;;;25.19;100.00;99861.16;6309665;20;3594077;-51
2023/08/19 18:02:52;;;;;;;;;34.00;32.00;;;;;25.04;100.00;99866.59;6309926;20;3607701;-48
2023/08/19 18:05:21;;;;;;;;;29.33;28.67;;;;;25.03;100.00;99864.84;6278670;20;3582543;-53
2023/08/19 18:07:50;;;;;;;;;27.00;25.00;;;;;25.04;100.00;99863.84;6275815;20;2733648;-49
2023/08/19 18:10:20;;;;;;;;;30.00;29.00;;;;;25.11;100.00;99873.03;6274739;20;3581544;-52
2023/08/19 18:12:55;;;;;;;;;31.14;28.00;;;;;24.97;100.00;99871.94;6326416;20;3591924;-53
2023/08/19 18:15:25;;;;;;;;;29.00;28.67;;;;;25.02;100.00;99871.41;6281540;20;3582538;-52
2023/08/19 18:17:54;;;;;;;;;35.00;29.67;;;;;25.11;100.00;99873.03;6277928;20;3601362;-52
2023/08/19 18:20:24;;;;;;;;;33.25;29.25;;;;;25.01;100.00;99883.41;6277858;20;3597204;-50
2023/08/19 18:22:52;;;;;;;;;28.00;28.00;;;;;24.84;100.00;99890.06;6312210;20;3579584;-50
2023/08/19 18:25:22;;;;;;;;;25.25;23.25;;;;;24.79;100.00;99895.25;6278871;20;3602821;-50
2023/08/19 18:27:51;;;;;;;;;30.00;29.00;;;;;24.40;100.00;99890.63;6305004;20;3459664;-54
2023/08/19 18:30:21;;;;;;;;;42.00;35.00;;;;;24.31;100.00;99909.88;6308735;20;3588927;-51
2023/08/19 18:32:51;;;;;;;;;46.00;38.00;;;;;24.29;100.00;99909.19;6280953;20;3581619;-51
2023/08/19 18:35:20;;;;;;;;;46.00;39.00;;;;;24.54;100.00;99903.66;6284695;20;3588868;-51
2023/08/19 18:37:49;;;;;;;;;44.67;36.33;;;;;24.47;100.00;99908.13;6284803;20;3571140;-54
2023/08/19 18:40:17;;;;;;;;;45.67;38.00;;;;;24.23;100.00;99912.66;6286131;20;3603403;-53
2023/08/19 18:42:46;;;;;;;;;44.00;37.00;;;;;24.30;100.00;99913.66;6283712;20;3594029;-53
2023/08/19 18:45:15;;;;;;;;;44.33;37.33;;;;;24.52;100.00;99917.53;6283305;20;3581676;-55
2023/08/19 18:48:09;;;;;;;;;46.33;39.67;;;;;24.24;100.00;99925.34;6283166;20;3599445;-49
2023/08/19 18:50:42;;;;;;;;;44.50;35.25;;;;;24.16;100.00;99917.13;6285820;20;3609765;-51
2023/08/19 18:53:11;;;;;;;;;41.75;34.25;;;;;24.03;100.00;99919.59;6315459;20;3602430;-53
2023/08/19 18:55:42;;;;;;;;;45.33;37.67;;;;;23.98;100.00;99919.25;6314765;20;3594127;-50
2023/08/19 18:58:11;;;;;;;;;49.33;40.00;;;;;24.02;100.00;99920.63;6284923;20;3608589;-48
2023/08/19 19:00:39;;;;;;;;;45.33;38.00;;;;;24.05;100.00;99917.53;6281617;20;3586782;-54
2023/08/19 19:03:09;;;;;;;;;43.00;37.33;;;;;24.28;100.00;99915.72;6281475;20;3582695;-50
2023/08/19 19:05:38;;;;;;;;;39.00;34.33;;;;;23.99;100.00;99910.84;6282720;20;3596293;-52
2023/08/19 19:08:07;;;;;;;;;37.33;32.00;;;;;23.94;100.00;99906.94;6287967;20;3579418;-51
2023/08/19 19:10:37;;;;;;;;;40.00;35.33;;;;;23.81;100.00;99913.81;6284736;20;3580486;-52
2023/08/19 19:13:06;;;;;;;;;38.33;31.67;;;;;23.88;100.00;99914.84;6282422;20;3597129;-50
2023/08/19 19:15:35;;;;;;;;;40.00;35.00;;;;;23.71;100.00;99918.59;6287292;20;3606553;-53
2023/08/19 19:18:05;;;;;;;;;39.67;34.67;;;;;23.81;100.00;99912.97;6318160;20;3575252;-52
2023/08/19 19:20:34;;;;;;;;;46.67;38.33;;;;;23.61;100.00;99918.75;6287175;20;3595036;-51
2023/08/19 19:23:03;;;;;;;;;52.50;43.00;;;;;23.44;100.00;99917.94;6285455;20;3601309;-54
2023/08/19 19:25:32;;;;;;;;;48.67;40.00;;;;;23.59;100.00;99925.44;6312562;20;3589930;-50
2023/08/19 19:28:02;;;;;;;;;43.67;36.67;;;;;23.49;100.00;99924.81;6281942;20;3592047;-52
2023/08/19 19:30:31;;;;;;;;;39.67;33.67;;;;;23.63;100.00;99921.34;6283116;20;3596148;-51
2023/08/19 19:32:59;;;;;;;;;44.00;36.33;;;;;23.73;100.00;99923.94;6283583;20;3602379;-51
2023/08/19 19:35:28;;;;;;;;;42.00;35.00;;;;;23.56;100.00;99920.31;6276102;20;3614917;-54
2023/08/19 19:37:57;;;;;;;;;37.33;32.00;;;;;23.53;100.00;99912.44;6281979;20;3590961;-52
2023/08/19 19:40:26;;;;;;;;;37.00;32.00;;;;;23.64;100.00;99915.69;6285380;20;3543073;-54
2023/08/19 19:42:55;;;;;;;;;37.67;32.67;;;;;23.50;100.00;99923.75;6286341;20;3597130;-53
2023/08/19 19:45:24;;;;;;;;;36.67;33.33;;;;;23.60;100.00;99921.69;6284269;20;3584728;-51
2023/08/19 19:47:52;;;;;;;;;44.00;35.33;;;;;23.33;100.00;99921.03;6285731;20;3584626;-52
2023/08/19 19:50:24;;;;;;;;;41.75;35.75;;;;;23.40;100.00;99915.69;6304233;20;3626326;-53
2023/08/19 19:52:53;;;;;;;;;36.00;33.00;;;;;23.57;100.00;99916.56;6278739;20;3585698;-52
2023/08/19 19:55:22;;;;;;;;;39.67;34.00;;;;;23.32;100.00;99924.78;6283884;20;3578470;-53
2023/08/19 19:57:51;;;;;;;;;43.33;34.33;;;;;23.00;100.00;99926.47;6280180;20;3591947;-52
2023/08/19 20:00:20;;;;;;;;;43.00;34.33;;;;;23.02;100.00;99929.03;6281642;20;3599334;-51
2023/08/19 20:02:48;;;;;;;;;45.00;38.00;;;;;22.79;100.00;99928.78;6284511;20;2656542;-52
2023/08/19 20:05:17;;;;;;;;;42.00;35.00;;;;;22.87;100.00;99936.16;6316347;20;3571086;-49
2023/08/19 20:07:46;;;;;;;;;44.67;36.33;;;;;22.89;100.00;99928.66;6276927;20;3597227;-52
2023/08/19 20:10:15;;;;;;;;;36.33;33.33;;;;;22.98;100.00;99927.66;6283876;20;3565916;-53
2023/08/19 20:12:56;;;;;;;;;43.67;37.67;;;;;22.91;100.00;99932.94;6280604;20;3607509;-52
2023/08/19 20:15:25;;;;;;;;;43.67;36.67;;;;;22.75;100.00;99932.91;6280398;20;3599337;-54
2023/08/19 20:17:57;;;;;;;;;43.00;37.00;;;;;23.03;100.00;99935.38;6278790;20;3590874;-51
2023/08/19 20:20:27;;;;;;;;;36.67;33.67;;;;;22.97;100.00;99926.81;6283905;20;3594024;-49
2023/08/19 20:22:58;;;;;;;;;34.50;30.75;;;;;22.87;100.00;99928.81;6279237;20;3610782;-53
2023/08/19 20:25:28;;;;;;;;;43.25;33.00;;;;;22.89;100.00;99923.19;6311384;20;4349322;-54
2023/08/19 20:27:56;;;;;;;;;39.00;34.00;;;;;23.00;100.00;99925.63;6310286;20;3596181;-49
2023/08/19 20:30:25;;;;;;;;;36.00;32.00;;;;;22.83;100.00;99919.22;6284533;20;3603348;-49
2023/08/19 20:32:55;;;;;;;;;41.00;34.50;;;;;22.67;100.00;99924.63;6280708;20;3605499;-50
2023/08/19 20:35:23;;;;;;;;;31.67;29.00;;;;;22.53;100.00;99918.78;6316494;20;3589973;-52
2023/08/19 20:37:52;;;;;;;;;38.33;33.33;;;;;22.70;100.00;99919.72;6278904;20;3602405;-51
2023/08/19 20:40:21;;;;;;;;;39.33;33.33;;;;;22.79;100.00;99913.22;6283356;20;3580668;-52
2023/08/19 20:42:50;;;;;;;;;35.67;31.33;;;;;22.67;100.00;99919.16;6277589;20;3605579;-54
2023/08/19 20:45:22;;;;;;;;;39.33;32.33;;;;;22.66;100.00;99920.19;6282545;20;3601374;-54
2023/08/19 20:47:54;;;;;;;;;37.00;34.00;;;;;22.54;100.00;99930.63;6283543;20;3591033;-53
2023/08/19 20:50:23;;;;;;;;;38.67;32.33;;;;;22.80;100.00;99938.69;6283300;20;3588916;-52
2023/08/19 20:52:52;;;;;;;;;34.75;31.25;;;;;22.78;100.00;99927.09;6278148;20;3609681;-50
2023/08/19 20:55:21;;;;;;;;;36.33;31.33;;;;;22.68;100.00;99940.91;6313816;20;3596221;-54
2023/08/19 20:57:50;;;;;;;;;33.67;29.00;;;;;22.52;100.00;99944.44;6280642;20;3594567;-50
2023/08/19 21:00:20;;;;;;;;;30.33;29.33;;;;;22.44;100.00;99941.69;6284252;20;3590897;-52
2023/08/19 21:02:49;;;;;;;;;33.67;29.67;;;;;22.53;100.00;99940.69;6285686;20;3599155;-48
2023/08/19 21:05:18;;;;;;;;;31.00;29.00;;;;;22.61;100.00;99941.75;6284213;20;3579420;-51
2023/08/19 21:07:47;;;;;;;;;33.33;30.33;;;;;22.62;100.00;99937.97;6283248;20;3600368;-53
2023/08/19 21:10:16;;;;;;;;;38.00;31.75;;;;;22.51;100.00;99944.59;6282129;20;3602358;-53
2023/08/19 21:12:45;;;;;;;;;33.67;31.67;;;;;22.43;100.00;99942.69;6311280;20;3604505;-51
2023/08/19 21:15:14;;;;;;;;;36.33;32.67;;;;;22.46;100.00;99947.84;6280511;20;3597287;-53
2023/08/19 21:17:43;;;;;;;;;36.00;31.00;;;;;22.47;100.00;99952.28;6267874;20;3595071;-53
2023/08/19 21:20:11;;;;;;;;;34.67;32.00;;;;;22.47;100.00;99957.78;6313925;20;3606919;-56
2023/08/19 21:22:40;;;;;;;;;38.00;34.00;;;;;22.61;100.00;99958.16;6282349;20;3606531;-51
2023/08/19 21:25:10;;;;;;;;;40.00;33.67;;;;;22.55;100.00;99957.78;6280350;20;2846179;-49
2023/08/19 21:27:40;;;;;;;;;39.00;34.33;;;;;22.42;100.00;99964.75;6311309;20;3583578;-53
2023/08/19 21:30:09;;;;;;;;;39.33;34.00;;;;;22.44;100.00;99971.78;6283162;20;3577382;-50
2023/08/19 21:32:38;;;;;;;;;38.00;33.33;;;;;22.37;100.00;99962.50;6279145;20;3587756;-51
2023/08/19 21:35:08;;;;;;;;;36.67;33.67;;;;;22.55;100.00;99974.22;6279413;20;3588792;-53
2023/08/19 21:37:36;;;;;;;;;30.00;29.00;;;;;22.50;100.00;99973.84;6314042;20;1892018;-54
2023/08/19 21:40:07;;;;;;;;;35.00;31.75;;;;;22.47;100.00;99976.94;6315318;20;3606539;-52
2023/08/19 21:42:36;;;;;;;;;31.67;30.67;;;;;22.51;100.00;99977.44;6313469;20;3596081;-53
2023/08/19 21:45:06;;;;;;;;;37.67;32.00;;;;;22.38;100.00;99980.66;6287234;20;3589916;-51
2023/08/19 21:47:35;;;;;;;;;37.00;32.00;;;;;22.15;100.00;99974.84;6280585;20;3612912;-50
2023/08/19 21:50:06;;;;;;;;;35.25;31.75;;;;;22.10;100.00;99977.22;6313888;20;3608675;-52
2023/08/19 21:52:35;;;;;;;;;35.00;32.67;;;;;22.30;100.00;99980.59;6310463;20;3598270;-52
2023/08/19 21:55:05;;;;;;;;;33.33;31.00;;;;;22.27;100.00;99979.03;6281477;20;3600278;-52
2023/08/19 21:57:34;;;;;;;;;32.33;31.00;;;;;22.00;100.00;99976.47;6281331;20;3593000;-52
2023/08/19 22:00:05;;;;;;;;;36.33;32.00;;;;;22.07;100.00;99977.53;6281975;20;3606585;-52
2023/08/19 22:02:36;;;;;;;;;37.00;32.00;;;;;21.94;100.00;99972.50;6280515;20;3610840;-53
2023/08/19 22:05:05;;;;;;;;;33.00;29.00;;;;;21.98;100.00;99973.03;6313190;20;3587754;-52
2023/08/19 22:07:34;;;;;;;;;31.67;29.00;;;;;22.20;100.00;99977.16;6279888;20;3587780;-50
2023/08/19 22:10:03;;;;;;;;;30.67;29.33;;;;;22.34;100.00;99973.78;6287986;20;3604546;-54
2023/08/19 22:12:32;;;;;;;;;31.33;30.33;;;;;22.18;100.00;99974.53;6284616;20;3580511;-54
2023/08/19 22:15:01;;;;;;;;;34.67;31.33;;;;;22.09;100.00;99973.63;6286940;20;3603420;-51
2023/08/19 22:17:30;;;;;;;;;36.00;31.00;;;;;22.16;100.00;99970.22;6285688;20;3608587;-54
2023/08/19 22:19:59;;;;;;;;;38.00;32.67;;;;;22.26;100.00;99982.81;6288367;20;3597155;-52
2023/08/19 22:22:28;;;;;;;;;35.25;31.75;;;;;22.27;100.00;99972.72;6287684;20;3608615;-51
2023/08/19 22:24:57;;;;;;;;;35.00;31.50;;;;;22.22;100.00;99975.06;6317365;20;4353357;-52
2023/08/19 22:27:27;;;;;;;;;32.33;29.67;;;;;22.08;100.00;99963.69;6315080;20;3597175;-52
2023/08/19 22:29:56;;;;;;;;;29.00;27.67;;;;;22.10;100.00;99967.13;6283218;20;3585743;-52
2023/08/19 22:32:25;;;;;;;;;32.00;31.00;;;;;22.12;100.00;99969.72;6288625;20;3589858;-51
2023/08/19 22:34:54;;;;;;;;;35.00;30.00;;;;;22.05;100.00;99964.03;6283006;20;3595053;-54
2023/08/19 22:37:24;;;;;;;;;34.33;30.67;;;;;22.02;100.00;99969.81;6315009;20;3602369;-49
2023/08/19 22:39:53;;;;;;;;;34.33;32.00;;;;;22.02;100.00;99963.50;6285468;20;3601439;-53
2023/08/19 22:42:22;;;;;;;;;29.33;29.00;;;;;21.90;100.00;99966.47;6285274;20;3582644;-53
2023/08/19 22:44:51;;;;;;;;;31.67;29.33;;;;;22.02;100.00;99958.03;6286934;20;3600285;-52
2023/08/19 22:47:20;;;;;;;;;36.25;31.75;;;;;22.02;100.00;99958.88;6285190;20;3598236;-54
2023/08/19 22:49:50;;;;;;;;;38.33;32.67;;;;;21.86;100.00;99954.16;6312611;20;3607540;-54
2023/08/19 22:52:19;;;;;;;;;33.67;29.67;;;;;21.67;100.00;99951.66;6285207;20;3591937;-51
2023/08/19 22:54:47;;;;;;;;;32.33;29.33;;;;;21.69;100.00;99958.63;6287091;20;3593993;-52
2023/08/19 22:57:16;;;;;;;;;32.33;30.67;;;;;21.67;100.00;99959.84;6285865;20;3597200;-51
2023/08/19 22:59:45;;;;;;;;;28.00;26.67;;;;;21.79;100.00;99960.44;6286593;20;3584636;-61
2023/08/19 23:02:15;;;;;;;;;33.75;31.00;;;;;21.65;100.00;99957.25;6286135;20;3604620;-60
2023/08/19 23:04:44;;;;;;;;;36.50;31.25;;;;;21.75;100.00;99957.16;6318268;20;3602390;-60
2023/08/19 23:07:14;;;;;;;;;35.00;32.25;;;;;21.85;100.00;99957.03;6318454;20;3602369;-59
2023/08/19 23:09:43;;;;;;;;;37.50;31.00;;;;;21.88;100.00;99956.72;6319341;20;3599265;-53
2023/08/19 23:12:12;;;;;;;;;39.00;33.00;;;;;21.80;100.00;99959.41;6317173;20;3584781;-60
2023/08/19 23:14:41;;;;;;;;;37.33;32.33;;;;;21.83;100.00;99959.09;6285105;20;3601374;-51
2023/08/19 23:17:12;;;;;;;;;37.75;33.00;;;;;21.89;100.00;99950.25;6288406;20;3609686;-53
2023/08/19 23:19:41;;;;;;;;;37.00;31.33;;;;;21.87;100.00;99955.88;6311017;20;3591998;-49
2023/08/19 23:22:11;;;;;;;;;39.00;32.00;;;;;21.87;100.00;99946.81;6313878;20;3618020;-50
2023/08/19 23:24:39;;;;;;;;;47.00;35.67;;;;;21.86;100.00;99950.56;6317131;20;3600248;-50
2023/08/19 23:27:08;;;;;;;;;44.33;37.67;;;;;21.85;100.00;99940.66;6282798;20;3587858;-53
2023/08/19 23:29:37;;;;;;;;;46.00;37.33;;;;;21.82;100.00;99944.56;6286690;20;3601324;-50
2023/08/19 23:32:06;;;;;;;;;43.33;36.33;;;;;21.84;100.00;99955.34;6285125;20;3582545;-53
2023/08/19 23:34:35;;;;;;;;;36.33;32.00;;;;;21.91;100.00;99945.50;6287612;20;3600308;-51
2023/08/19 23:37:03;;;;;;;;;28.67;28.67;;;;;21.88;100.00;99951.25;6285711;20;3579536;-53
2023/08/19 23:39:32;;;;;;;;;29.00;29.00;;;;;21.81;100.00;99947.47;6285914;20;3581609;-48
2023/08/19 23:42:02;;;;;;;;;33.75;30.75;;;;;21.80;100.00;99943.00;6283298;20;3609633;-53
2023/08/19 23:44:31;;;;;;;;;35.33;30.33;;;;;21.68;100.00;99940.53;6314869;20;3603360;-51
2023/08/19 23:47:00;;;;;;;;;31.67;28.00;;;;;21.62;100.00;99935.72;6279351;20;3586683;-53
2023/08/19 23:49:30;;;;;;;;;34.33;30.00;;;;;21.65;100.00;99934.53;6286745;20;3589836;-54
2023/08/19 23:52:01;;;;;;;;;32.33;30.00;;;;;21.61;100.00;99934.00;6283265;20;3598169;-52
2023/08/19 23:54:31;;;;;;;;;32.00;30.00;;;;;21.84;100.00;99926.13;6279981;20;3585798;-54
2023/08/19 23:57:01;;;;;;;;;28.33;27.00;;;;;21.74;100.00;99933.56;6281047;20;3589959;-56
2023/08/19 23:59:30;;;;;;;;;31.33;29.67;;;;;21.86;100.00;99931.44;6314222;20;3584614;-48
